createdAt,value
2016-11-21T00:00:31.384Z,18.68
2016-11-21T00:01:03.717Z,18.69
2016-11-21T00:01:36.018Z,18.63
2016-11-21T00:02:08.386Z,18.61
2016-11-21T00:02:40.709Z,18.59
2016-11-21T00:03:13.039Z,18.61
2016-11-21T00:03:45.370Z,18.61
2016-11-21T00:04:17.696Z,18.66
2016-11-21T00:04:50.011Z,18.66
2016-11-21T00:05:22.344Z,18.65
2016-11-21T00:05:54.670Z,18.69
2016-11-21T00:06:27.026Z,18.68
2016-11-21T00:06:59.355Z,18.63
2016-11-21T00:07:31.699Z,18.61
2016-11-21T00:08:04.023Z,18.71
2016-11-21T00:08:36.337Z,18.63
2016-11-21T00:09:08.659Z,18.6
2016-11-21T00:09:41.008Z,18.71
2016-11-21T00:10:13.339Z,18.63
2016-11-21T00:10:45.656Z,18.69
2016-11-21T00:11:17.984Z,18.66
2016-11-21T00:11:50.313Z,18.65
2016-11-21T00:12:22.644Z,18.65
2016-11-21T00:12:54.957Z,18.61
2016-11-21T00:13:27.287Z,18.66
2016-11-21T00:13:59.612Z,18.65
2016-11-21T00:14:31.945Z,18.56
2016-11-21T00:15:04.284Z,18.68
2016-11-21T00:15:36.620Z,18.71
2016-11-21T00:16:08.946Z,18.69
2016-11-21T00:16:41.281Z,18.65
2016-11-21T00:17:13.615Z,18.68
2016-11-21T00:17:45.962Z,18.68
2016-11-21T00:18:18.301Z,18.68
2016-11-21T00:18:50.627Z,18.61
2016-11-21T00:19:22.948Z,18.68
2016-11-21T00:19:55.292Z,18.66
2016-11-21T00:20:27.615Z,18.75
2016-11-21T00:20:59.967Z,18.69
2016-11-21T00:21:32.282Z,18.69
2016-11-21T00:22:04.617Z,18.68
2016-11-21T00:22:36.955Z,18.6
2016-11-21T00:23:09.267Z,18.61
2016-11-21T00:23:41.655Z,18.66
2016-11-21T00:24:13.982Z,18.63
2016-11-21T00:24:46.314Z,18.66
2016-11-21T00:25:18.643Z,18.66
2016-11-21T00:25:50.958Z,18.68
2016-11-21T00:26:23.293Z,18.71
2016-11-21T00:26:55.612Z,18.68
2016-11-21T00:27:27.947Z,18.71
2016-11-21T00:28:00.274Z,18.6
2016-11-21T00:28:32.609Z,18.71
2016-11-21T00:29:04.932Z,18.65
2016-11-21T00:29:37.269Z,18.65
2016-11-21T00:30:09.582Z,18.63
2016-11-21T00:30:41.894Z,18.68
2016-11-21T00:31:14.228Z,18.71
2016-11-21T00:31:46.546Z,18.63
2016-11-21T00:32:18.888Z,18.6
2016-11-21T00:32:51.206Z,18.71
2016-11-21T00:33:23.529Z,18.69
2016-11-21T00:33:55.865Z,18.69
2016-11-21T00:34:28.207Z,18.65
2016-11-21T00:35:00.544Z,18.6
2016-11-21T00:35:32.868Z,18.63
2016-11-21T00:36:05.214Z,18.71
2016-11-21T00:36:37.544Z,18.68
2016-11-21T00:37:09.855Z,18.66
2016-11-21T00:37:42.188Z,18.71
2016-11-21T00:38:14.507Z,18.74
2016-11-21T00:38:46.838Z,18.71
2016-11-21T00:39:19.163Z,18.71
2016-11-21T00:39:51.497Z,18.6
2016-11-21T00:40:23.819Z,18.59
2016-11-21T00:40:56.146Z,18.68
2016-11-21T00:41:28.467Z,18.65
2016-11-21T00:42:00.783Z,18.68
2016-11-21T00:42:33.113Z,18.61
2016-11-21T00:43:05.440Z,18.61
2016-11-21T00:43:37.753Z,18.71
2016-11-21T00:44:10.086Z,18.71
2016-11-21T00:44:42.388Z,18.66
2016-11-21T00:45:14.716Z,18.69
2016-11-21T00:45:47.026Z,18.65
2016-11-21T00:46:19.348Z,18.61
2016-11-21T00:46:51.665Z,18.65
2016-11-21T00:47:23.988Z,18.63
2016-11-21T00:47:56.309Z,18.66
2016-11-21T00:48:28.665Z,18.65
2016-11-21T00:49:00.999Z,18.6
2016-11-21T00:49:33.335Z,18.63
2016-11-21T00:50:05.677Z,18.71
2016-11-21T00:50:37.984Z,18.63
2016-11-21T00:51:10.306Z,18.6
2016-11-21T00:51:42.646Z,18.63
2016-11-21T00:52:15.007Z,18.72
2016-11-21T00:52:47.319Z,18.63
2016-11-21T00:53:19.645Z,18.68
2016-11-21T00:53:51.979Z,18.63
2016-11-21T00:54:24.323Z,18.63
2016-11-21T00:54:56.646Z,18.61
2016-11-21T00:55:28.988Z,18.69
2016-11-21T00:56:01.276Z,18.74
2016-11-21T00:56:33.609Z,18.61
2016-11-21T00:57:05.935Z,18.63
2016-11-21T00:57:38.243Z,18.6
2016-11-21T00:58:10.565Z,18.65
2016-11-21T00:58:42.876Z,18.66
2016-11-21T00:59:15.184Z,18.71
2016-11-21T00:59:47.509Z,18.68
2016-11-21T01:00:19.855Z,18.65
2016-11-21T01:00:52.233Z,18.69
2016-11-21T01:01:24.567Z,18.71
2016-11-21T01:01:56.893Z,18.65
2016-11-21T01:02:29.214Z,18.63
2016-11-21T01:03:01.525Z,18.65
2016-11-21T01:03:33.881Z,18.66
2016-11-21T01:04:06.214Z,18.66
2016-11-21T01:04:38.529Z,18.6
2016-11-21T01:05:10.846Z,18.68
2016-11-21T01:05:43.170Z,18.66
2016-11-21T01:06:15.476Z,18.61
2016-11-21T01:06:47.788Z,18.61
2016-11-21T01:07:20.121Z,18.59
2016-11-21T01:07:52.458Z,18.61
2016-11-21T01:08:24.782Z,18.6
2016-11-21T01:08:57.155Z,18.66
2016-11-21T01:09:29.466Z,18.65
2016-11-21T01:10:01.808Z,18.54
2016-11-21T01:10:34.129Z,18.69
2016-11-21T01:11:06.493Z,18.63
2016-11-21T01:11:38.817Z,18.69
2016-11-21T01:12:11.233Z,18.63
2016-11-21T01:12:43.562Z,18.61
2016-11-21T01:13:15.882Z,18.65
2016-11-21T01:13:48.209Z,18.63
2016-11-21T01:14:20.532Z,18.68
2016-11-21T01:14:52.855Z,18.57
2016-11-21T01:15:25.168Z,18.6
2016-11-21T01:15:57.483Z,18.59
2016-11-21T01:16:29.828Z,18.66
2016-11-21T01:17:02.133Z,18.66
2016-11-21T01:17:34.455Z,18.66
2016-11-21T01:18:06.780Z,18.63
2016-11-21T01:18:39.093Z,18.65
2016-11-21T01:19:11.412Z,18.65
2016-11-21T01:19:43.723Z,18.6
2016-11-21T01:20:16.045Z,18.63
2016-11-21T01:20:49.108Z,18.65
2016-11-21T01:21:21.426Z,18.61
2016-11-21T01:21:53.762Z,18.59
2016-11-21T01:22:26.090Z,18.68
2016-11-21T01:22:58.401Z,18.61
2016-11-21T01:23:30.717Z,18.63
2016-11-21T01:24:03.069Z,18.65
2016-11-21T01:24:35.396Z,18.61
2016-11-21T01:25:07.715Z,18.63
2016-11-21T01:25:40.053Z,18.69
2016-11-21T01:26:12.380Z,18.61
2016-11-21T01:26:44.703Z,18.61
2016-11-21T01:27:17.022Z,18.63
2016-11-21T01:27:49.337Z,18.66
2016-11-21T01:28:21.661Z,18.66
2016-11-21T01:28:53.989Z,18.6
2016-11-21T01:29:26.333Z,18.61
2016-11-21T01:29:58.660Z,18.65
2016-11-21T01:30:31.000Z,18.61
2016-11-21T01:31:03.326Z,18.63
2016-11-21T01:31:35.691Z,18.61
2016-11-21T01:32:08.020Z,18.63
2016-11-21T01:32:40.351Z,18.61
2016-11-21T01:33:12.660Z,18.59
2016-11-21T01:33:45.010Z,18.61
2016-11-21T01:34:17.336Z,18.61
2016-11-21T01:34:49.664Z,18.66
2016-11-21T01:35:21.984Z,18.59
2016-11-21T01:35:54.330Z,18.66
2016-11-21T01:36:26.654Z,18.63
2016-11-21T01:36:58.980Z,18.63
2016-11-21T01:37:31.306Z,18.6
2016-11-21T01:38:03.635Z,18.68
2016-11-21T01:38:35.950Z,18.6
2016-11-21T01:39:08.286Z,18.65
2016-11-21T01:39:40.646Z,18.65
2016-11-21T01:40:12.997Z,18.59
2016-11-21T01:40:45.315Z,18.61
2016-11-21T01:41:17.641Z,18.6
2016-11-21T01:41:49.974Z,18.61
2016-11-21T01:42:22.373Z,18.66
2016-11-21T01:42:54.701Z,18.66
2016-11-21T01:43:27.037Z,18.69
2016-11-21T01:43:59.363Z,18.65
2016-11-21T01:44:31.692Z,18.61
2016-11-21T01:45:04.028Z,18.65
2016-11-21T01:45:36.382Z,18.65
2016-11-21T01:46:08.712Z,18.66
2016-11-21T01:46:41.045Z,18.65
2016-11-21T01:47:13.362Z,18.6
2016-11-21T01:47:45.701Z,18.59
2016-11-21T01:48:18.024Z,18.57
2016-11-21T01:48:50.360Z,18.6
2016-11-21T01:49:22.723Z,18.6
2016-11-21T01:49:55.054Z,18.65
2016-11-21T01:50:27.395Z,18.63
2016-11-21T01:50:59.715Z,18.66
2016-11-21T01:51:32.041Z,18.68
2016-11-21T01:52:04.350Z,18.63
2016-11-21T01:52:36.666Z,18.59
2016-11-21T01:53:09.009Z,18.61
2016-11-21T01:53:41.315Z,18.57
2016-11-21T01:54:13.631Z,18.61
2016-11-21T01:54:45.954Z,18.6
2016-11-21T01:55:18.322Z,18.65
2016-11-21T01:55:50.663Z,18.68
2016-11-21T01:56:22.993Z,18.61
2016-11-21T01:56:55.324Z,18.6
2016-11-21T01:57:27.735Z,18.65
2016-11-21T01:58:00.048Z,18.56
2016-11-21T01:58:32.379Z,18.59
2016-11-21T01:59:04.696Z,18.56
2016-11-21T01:59:37.040Z,18.6
2016-11-21T02:00:09.362Z,18.61
2016-11-21T02:00:41.674Z,18.61
2016-11-21T02:01:14.012Z,18.61
2016-11-21T02:01:46.336Z,18.6
2016-11-21T02:02:18.652Z,18.61
2016-11-21T02:02:50.986Z,18.59
2016-11-21T02:03:23.313Z,18.63
2016-11-21T02:03:55.641Z,18.63
2016-11-21T02:04:27.967Z,18.57
2016-11-21T02:05:00.304Z,18.57
2016-11-21T02:05:32.628Z,18.59
2016-11-21T02:06:04.974Z,18.57
2016-11-21T02:06:37.299Z,18.61
2016-11-21T02:07:09.626Z,18.66
2016-11-21T02:07:41.949Z,18.61
2016-11-21T02:08:14.282Z,18.6
2016-11-21T02:08:46.618Z,18.63
2016-11-21T02:09:18.945Z,18.61
2016-11-21T02:09:51.278Z,18.56
2016-11-21T02:10:23.603Z,18.6
2016-11-21T02:10:55.916Z,18.59
2016-11-21T02:11:28.248Z,18.59
2016-11-21T02:12:00.578Z,18.59
2016-11-21T02:12:32.908Z,18.57
2016-11-21T02:13:05.223Z,18.57
2016-11-21T02:13:37.553Z,18.57
2016-11-21T02:14:09.887Z,18.54
2016-11-21T02:14:42.215Z,18.56
2016-11-21T02:15:14.542Z,18.5
2016-11-21T02:15:46.867Z,18.59
2016-11-21T02:16:19.190Z,18.56
2016-11-21T02:16:51.524Z,18.6
2016-11-21T02:17:23.853Z,18.56
2016-11-21T02:17:56.208Z,18.59
2016-11-21T02:18:28.550Z,18.51
2016-11-21T02:19:00.893Z,18.56
2016-11-21T02:19:33.232Z,18.59
2016-11-21T02:20:05.565Z,18.57
2016-11-21T02:20:37.875Z,18.57
2016-11-21T02:21:10.184Z,18.57
2016-11-21T02:21:42.507Z,18.53
2016-11-21T02:22:14.836Z,18.66
2016-11-21T02:22:47.154Z,18.59
2016-11-21T02:23:19.478Z,18.59
2016-11-21T02:23:51.810Z,18.57
2016-11-21T02:24:24.131Z,18.54
2016-11-21T02:24:56.452Z,18.56
2016-11-21T02:25:28.781Z,18.51
2016-11-21T02:26:01.099Z,18.57
2016-11-21T02:26:33.431Z,18.61
2016-11-21T02:27:05.784Z,18.6
2016-11-21T02:27:38.101Z,18.57
2016-11-21T02:28:10.435Z,18.59
2016-11-21T02:28:42.750Z,18.56
2016-11-21T02:29:15.080Z,18.59
2016-11-21T02:29:47.397Z,18.59
2016-11-21T02:30:19.727Z,18.56
2016-11-21T02:30:52.065Z,18.57
2016-11-21T02:31:24.399Z,18.53
2016-11-21T02:31:56.758Z,18.51
2016-11-21T02:32:29.081Z,18.57
2016-11-21T02:33:01.429Z,18.6
2016-11-21T02:33:33.781Z,18.6
2016-11-21T02:34:06.108Z,18.53
2016-11-21T02:34:38.422Z,18.56
2016-11-21T02:35:10.744Z,18.56
2016-11-21T02:35:43.081Z,18.59
2016-11-21T02:36:15.394Z,18.56
2016-11-21T02:36:47.701Z,18.54
2016-11-21T02:37:20.043Z,18.54
2016-11-21T02:37:52.366Z,18.56
2016-11-21T02:38:24.673Z,18.6
2016-11-21T02:38:56.978Z,18.49
2016-11-21T02:39:29.288Z,18.56
2016-11-21T02:40:01.614Z,18.57
2016-11-21T02:40:33.935Z,18.57
2016-11-21T02:41:06.262Z,18.57
2016-11-21T02:41:38.591Z,18.53
2016-11-21T02:42:10.914Z,18.51
2016-11-21T02:42:43.246Z,18.56
2016-11-21T02:43:15.579Z,18.56
2016-11-21T02:43:47.916Z,18.57
2016-11-21T02:44:20.205Z,18.5
2016-11-21T02:44:52.548Z,18.56
2016-11-21T02:45:24.940Z,18.5
2016-11-21T02:45:57.285Z,18.6
2016-11-21T02:46:29.603Z,18.51
2016-11-21T02:47:01.937Z,18.56
2016-11-21T02:47:34.263Z,18.53
2016-11-21T02:48:06.606Z,18.53
2016-11-21T02:48:38.929Z,18.57
2016-11-21T02:49:11.254Z,18.56
2016-11-21T02:49:43.621Z,18.54
2016-11-21T02:50:15.934Z,18.47
2016-11-21T02:50:48.282Z,18.54
2016-11-21T02:51:20.602Z,18.53
2016-11-21T02:51:52.934Z,18.57
2016-11-21T02:52:25.273Z,18.56
2016-11-21T02:52:57.600Z,18.5
2016-11-21T02:53:29.949Z,18.59
2016-11-21T02:54:02.258Z,18.51
2016-11-21T02:54:34.589Z,18.54
2016-11-21T02:55:06.913Z,18.57
2016-11-21T02:55:39.239Z,18.6
2016-11-21T02:56:11.599Z,18.57
2016-11-21T02:56:43.931Z,18.54
2016-11-21T02:57:16.237Z,18.53
2016-11-21T02:57:48.547Z,18.53
2016-11-21T02:58:20.879Z,18.49
2016-11-21T02:58:53.203Z,18.57
2016-11-21T02:59:25.521Z,18.47
2016-11-21T02:59:57.843Z,18.54
2016-11-21T03:00:30.176Z,18.54
2016-11-21T03:01:02.534Z,18.56
2016-11-21T03:01:34.867Z,18.51
2016-11-21T03:02:07.195Z,18.57
2016-11-21T03:02:39.519Z,18.54
2016-11-21T03:03:11.856Z,18.59
2016-11-21T03:03:44.160Z,18.56
2016-11-21T03:04:16.481Z,18.53
2016-11-21T03:04:48.796Z,18.54
2016-11-21T03:05:21.152Z,18.5
2016-11-21T03:05:53.457Z,18.54
2016-11-21T03:06:25.788Z,18.54
2016-11-21T03:06:58.113Z,18.54
2016-11-21T03:07:30.421Z,18.49
2016-11-21T03:08:02.789Z,18.54
2016-11-21T03:08:35.122Z,18.49
2016-11-21T03:09:07.467Z,18.51
2016-11-21T03:09:39.793Z,18.59
2016-11-21T03:10:12.142Z,18.54
2016-11-21T03:10:44.473Z,18.49
2016-11-21T03:11:16.815Z,18.53
2016-11-21T03:11:49.190Z,18.47
2016-11-21T03:12:21.529Z,18.49
2016-11-21T03:12:53.850Z,18.5
2016-11-21T03:13:26.182Z,18.56
2016-11-21T03:13:58.505Z,18.54
2016-11-21T03:14:30.815Z,18.51
2016-11-21T03:15:03.137Z,18.54
2016-11-21T03:15:35.453Z,18.53
2016-11-21T03:16:07.779Z,18.57
2016-11-21T03:16:40.106Z,18.5
2016-11-21T03:17:12.427Z,18.54
2016-11-21T03:17:44.762Z,18.5
2016-11-21T03:18:17.104Z,18.53
2016-11-21T03:18:49.449Z,18.51
2016-11-21T03:19:21.775Z,18.54
2016-11-21T03:19:54.125Z,18.54
2016-11-21T03:20:26.453Z,18.5
2016-11-21T03:20:58.812Z,18.54
2016-11-21T03:21:31.142Z,18.47
2016-11-21T03:22:03.464Z,18.5
2016-11-21T03:22:35.798Z,18.53
2016-11-21T03:23:08.117Z,18.54
2016-11-21T03:23:40.439Z,18.47
2016-11-21T03:24:12.771Z,18.54
2016-11-21T03:24:45.090Z,18.45
2016-11-21T03:25:17.421Z,18.54
2016-11-21T03:25:49.765Z,18.47
2016-11-21T03:26:22.092Z,18.51
2016-11-21T03:26:54.425Z,18.49
2016-11-21T03:27:26.756Z,18.51
2016-11-21T03:27:59.084Z,18.56
2016-11-21T03:28:31.416Z,18.5
2016-11-21T03:29:03.755Z,18.51
2016-11-21T03:29:36.116Z,18.49
2016-11-21T03:30:08.440Z,18.54
2016-11-21T03:30:40.760Z,18.51
2016-11-21T03:31:13.083Z,18.49
2016-11-21T03:31:45.415Z,18.5
2016-11-21T03:32:17.758Z,18.51
2016-11-21T03:32:50.086Z,18.5
2016-11-21T03:33:22.412Z,18.49
2016-11-21T03:33:54.797Z,18.54
2016-11-21T03:34:27.084Z,18.54
2016-11-21T03:34:59.435Z,18.51
2016-11-21T03:35:31.734Z,18.54
2016-11-21T03:36:04.055Z,18.51
2016-11-21T03:36:36.392Z,18.47
2016-11-21T03:37:08.714Z,18.51
2016-11-21T03:37:41.028Z,18.45
2016-11-21T03:38:13.350Z,18.49
2016-11-21T03:38:45.704Z,18.54
2016-11-21T03:39:18.019Z,18.54
2016-11-21T03:39:50.345Z,18.56
2016-11-21T03:40:22.674Z,18.49
2016-11-21T03:40:55.015Z,18.45
2016-11-21T03:41:27.340Z,18.47
2016-11-21T03:41:59.675Z,18.5
2016-11-21T03:42:31.999Z,18.53
2016-11-21T03:43:04.322Z,18.5
2016-11-21T03:43:36.647Z,18.56
2016-11-21T03:44:08.982Z,18.45
2016-11-21T03:44:41.304Z,18.53
2016-11-21T03:45:13.631Z,18.49
2016-11-21T03:45:45.968Z,18.5
2016-11-21T03:46:18.296Z,18.5
2016-11-21T03:46:50.618Z,18.53
2016-11-21T03:47:22.928Z,18.5
2016-11-21T03:47:55.228Z,18.53
2016-11-21T03:48:27.547Z,18.53
2016-11-21T03:48:59.859Z,18.53
2016-11-21T03:49:32.193Z,18.5
2016-11-21T03:50:04.507Z,18.54
2016-11-21T03:50:36.831Z,18.5
2016-11-21T03:51:09.161Z,18.47
2016-11-21T03:51:41.472Z,18.51
2016-11-21T03:52:13.784Z,18.49
2016-11-21T03:52:46.113Z,18.49
2016-11-21T03:53:18.448Z,18.5
2016-11-21T03:53:50.773Z,18.47
2016-11-21T03:54:23.084Z,18.45
2016-11-21T03:54:55.417Z,18.5
2016-11-21T03:55:27.735Z,18.45
2016-11-21T03:56:00.069Z,18.49
2016-11-21T03:56:32.393Z,18.45
2016-11-21T03:57:04.715Z,18.56
2016-11-21T03:57:37.036Z,18.53
2016-11-21T03:58:09.359Z,18.54
2016-11-21T03:58:41.721Z,18.49
2016-11-21T03:59:14.047Z,18.44
2016-11-21T03:59:46.373Z,18.56
2016-11-21T04:00:18.686Z,18.5
2016-11-21T04:00:50.996Z,18.49
2016-11-21T04:01:23.332Z,18.49
2016-11-21T04:01:55.651Z,18.5
2016-11-21T04:02:27.986Z,18.51
2016-11-21T04:03:00.312Z,18.47
2016-11-21T04:03:32.632Z,18.49
2016-11-21T04:04:04.949Z,18.5
2016-11-21T04:04:37.288Z,18.54
2016-11-21T04:05:09.647Z,18.47
2016-11-21T04:05:41.977Z,18.5
2016-11-21T04:06:14.278Z,18.51
2016-11-21T04:06:46.613Z,18.45
2016-11-21T04:07:18.940Z,18.49
2016-11-21T04:07:51.278Z,18.47
2016-11-21T04:08:23.598Z,18.51
2016-11-21T04:08:55.929Z,18.5
2016-11-21T04:09:28.259Z,18.47
2016-11-21T04:10:00.586Z,18.47
2016-11-21T04:10:32.910Z,18.51
2016-11-21T04:11:05.255Z,18.45
2016-11-21T04:11:37.587Z,18.5
2016-11-21T04:12:09.911Z,18.44
2016-11-21T04:12:42.234Z,18.49
2016-11-21T04:13:14.592Z,18.49
2016-11-21T04:13:46.894Z,18.51
2016-11-21T04:14:19.233Z,18.54
2016-11-21T04:14:51.554Z,18.42
2016-11-21T04:15:23.878Z,18.51
2016-11-21T04:15:56.210Z,18.51
2016-11-21T04:16:28.549Z,18.45
2016-11-21T04:17:00.875Z,18.42
2016-11-21T04:17:33.185Z,18.51
2016-11-21T04:18:05.550Z,18.49
2016-11-21T04:18:37.865Z,18.5
2016-11-21T04:19:10.198Z,18.47
2016-11-21T04:19:42.514Z,18.5
2016-11-21T04:20:14.842Z,18.5
2016-11-21T04:20:47.178Z,18.51
2016-11-21T04:21:19.499Z,18.49
2016-11-21T04:21:51.823Z,18.51
2016-11-21T04:22:24.127Z,18.5
2016-11-21T04:22:56.469Z,18.47
2016-11-21T04:23:28.786Z,18.49
2016-11-21T04:24:01.101Z,18.49
2016-11-21T04:24:33.429Z,18.54
2016-11-21T04:25:05.760Z,18.53
2016-11-21T04:25:38.088Z,18.5
2016-11-21T04:26:10.414Z,18.45
2016-11-21T04:26:42.725Z,18.51
2016-11-21T04:27:15.044Z,18.53
2016-11-21T04:27:47.362Z,18.5
2016-11-21T04:28:19.692Z,18.51
2016-11-21T04:28:52.014Z,18.49
2016-11-21T04:29:24.363Z,18.45
2016-11-21T04:29:56.674Z,18.5
2016-11-21T04:30:29.013Z,18.49
2016-11-21T04:31:01.334Z,18.44
2016-11-21T04:31:33.680Z,18.5
2016-11-21T04:32:06.003Z,18.53
2016-11-21T04:32:38.333Z,18.49
2016-11-21T04:33:10.675Z,18.47
2016-11-21T04:33:42.996Z,18.47
2016-11-21T04:34:15.319Z,18.5
2016-11-21T04:34:47.669Z,18.5
2016-11-21T04:35:19.992Z,18.51
2016-11-21T04:35:52.310Z,18.44
2016-11-21T04:36:24.638Z,18.49
2016-11-21T04:36:56.963Z,18.47
2016-11-21T04:37:29.280Z,18.47
2016-11-21T04:38:01.624Z,18.51
2016-11-21T04:38:33.967Z,18.47
2016-11-21T04:39:06.289Z,18.47
2016-11-21T04:39:38.648Z,18.5
2016-11-21T04:40:10.970Z,18.44
2016-11-21T04:40:43.275Z,18.54
2016-11-21T04:41:15.622Z,18.44
2016-11-21T04:41:47.949Z,18.47
2016-11-21T04:42:20.284Z,18.54
2016-11-21T04:42:52.606Z,18.49
2016-11-21T04:43:24.900Z,18.53
2016-11-21T04:43:57.229Z,18.49
2016-11-21T04:44:29.548Z,18.51
2016-11-21T04:45:01.861Z,18.51
2016-11-21T04:45:34.181Z,18.47
2016-11-21T04:46:06.501Z,18.44
2016-11-21T04:46:38.829Z,18.5
2016-11-21T04:47:11.145Z,18.47
2016-11-21T04:47:43.474Z,18.45
2016-11-21T04:48:15.797Z,18.5
2016-11-21T04:48:48.115Z,18.47
2016-11-21T04:49:20.453Z,18.5
2016-11-21T04:49:52.771Z,18.47
2016-11-21T04:50:25.093Z,18.49
2016-11-21T04:50:57.426Z,18.5
2016-11-21T04:51:29.773Z,18.49
2016-11-21T04:52:02.098Z,18.44
2016-11-21T04:52:34.425Z,18.47
2016-11-21T04:53:06.749Z,18.54
2016-11-21T04:53:39.084Z,18.45
2016-11-21T04:54:11.412Z,18.51
2016-11-21T04:54:43.724Z,18.5
2016-11-21T04:55:16.057Z,18.49
2016-11-21T04:55:48.408Z,18.44
2016-11-21T04:56:20.762Z,18.53
2016-11-21T04:56:53.092Z,18.49
2016-11-21T04:57:25.415Z,18.5
2016-11-21T04:57:57.737Z,18.51
2016-11-21T04:58:30.060Z,18.53
2016-11-21T04:59:02.384Z,18.47
2016-11-21T04:59:34.710Z,18.49
2016-11-21T05:00:07.029Z,18.51
2016-11-21T05:00:39.358Z,18.49
2016-11-21T05:01:11.687Z,18.5
2016-11-21T05:01:44.017Z,18.47
2016-11-21T05:02:16.341Z,18.56
2016-11-21T05:02:48.673Z,18.45
2016-11-21T05:03:21.093Z,18.47
2016-11-21T05:03:54.235Z,18.51
2016-11-21T05:04:26.573Z,18.53
2016-11-21T05:04:58.899Z,18.51
2016-11-21T05:05:31.229Z,18.49
2016-11-21T05:06:03.584Z,18.5
2016-11-21T05:06:35.904Z,18.41
2016-11-21T05:07:08.233Z,18.54
2016-11-21T05:07:40.545Z,18.54
2016-11-21T05:08:12.877Z,18.53
2016-11-21T05:08:45.207Z,18.49
2016-11-21T05:09:17.531Z,18.5
2016-11-21T05:09:49.889Z,18.51
2016-11-21T05:10:22.209Z,18.53
2016-11-21T05:10:54.524Z,18.45
2016-11-21T05:11:26.846Z,18.5
2016-11-21T05:11:59.181Z,18.54
2016-11-21T05:12:31.494Z,18.51
2016-11-21T05:13:03.834Z,18.53
2016-11-21T05:13:36.162Z,18.49
2016-11-21T05:14:08.494Z,18.45
2016-11-21T05:14:40.832Z,18.54
2016-11-21T05:15:13.161Z,18.44
2016-11-21T05:15:45.482Z,18.45
2016-11-21T05:16:17.852Z,18.47
2016-11-21T05:16:50.169Z,18.5
2016-11-21T05:17:22.512Z,18.53
2016-11-21T05:17:54.837Z,18.51
2016-11-21T05:18:27.167Z,18.49
2016-11-21T05:18:59.505Z,18.5
2016-11-21T05:19:31.846Z,18.47
2016-11-21T05:20:04.155Z,18.5
2016-11-21T05:20:36.490Z,18.49
2016-11-21T05:21:08.803Z,18.51
2016-11-21T05:21:42.155Z,18.54
2016-11-21T05:22:14.480Z,18.47
2016-11-21T05:22:46.817Z,18.47
2016-11-21T05:23:19.129Z,18.49
2016-11-21T05:23:51.445Z,18.49
2016-11-21T05:24:23.788Z,18.5
2016-11-21T05:24:56.111Z,18.49
2016-11-21T05:25:28.439Z,18.5
2016-11-21T05:26:00.786Z,18.49
2016-11-21T05:26:33.125Z,18.56
2016-11-21T05:27:05.454Z,18.54
2016-11-21T05:27:37.815Z,18.56
2016-11-21T05:28:10.133Z,18.54
2016-11-21T05:28:42.445Z,18.5
2016-11-21T05:29:14.790Z,18.5
2016-11-21T05:29:47.113Z,18.49
2016-11-21T05:30:19.445Z,18.54
2016-11-21T05:30:51.777Z,18.54
2016-11-21T05:31:24.090Z,18.57
2016-11-21T05:31:56.446Z,18.45
2016-11-21T05:32:28.774Z,18.51
2016-11-21T05:33:01.130Z,18.51
2016-11-21T05:33:33.455Z,18.51
2016-11-21T05:34:05.776Z,18.54
2016-11-21T05:34:38.098Z,18.53
2016-11-21T05:35:10.437Z,18.59
2016-11-21T05:35:42.772Z,18.54
2016-11-21T05:36:15.101Z,18.47
2016-11-21T05:36:47.420Z,18.49
2016-11-21T05:37:19.758Z,18.49
2016-11-21T05:37:52.076Z,18.56
2016-11-21T05:38:24.395Z,18.6
2016-11-21T05:38:56.752Z,18.54
2016-11-21T05:39:29.056Z,18.54
2016-11-21T05:40:01.361Z,18.53
2016-11-21T05:40:33.667Z,18.53
2016-11-21T05:41:06.001Z,18.49
2016-11-21T05:41:38.343Z,18.56
2016-11-21T05:42:10.655Z,18.59
2016-11-21T05:42:42.986Z,18.53
2016-11-21T05:43:15.304Z,18.54
2016-11-21T05:43:47.628Z,18.56
2016-11-21T05:44:20.635Z,18.49
2016-11-21T05:44:52.942Z,18.59
2016-11-21T05:45:25.279Z,18.51
2016-11-21T05:45:57.616Z,18.51
2016-11-21T05:46:29.949Z,18.51
2016-11-21T05:47:02.291Z,18.51
2016-11-21T05:47:34.623Z,18.54
2016-11-21T05:48:06.939Z,18.49
2016-11-21T05:48:39.273Z,18.54
2016-11-21T05:49:11.655Z,18.53
2016-11-21T05:49:43.971Z,18.54
2016-11-21T05:50:16.276Z,18.56
2016-11-21T05:50:48.595Z,18.53
2016-11-21T05:51:20.909Z,18.51
2016-11-21T05:51:54.273Z,18.53
2016-11-21T05:52:26.594Z,18.53
2016-11-21T05:52:58.896Z,18.5
2016-11-21T05:53:31.219Z,18.51
2016-11-21T05:54:03.548Z,18.57
2016-11-21T05:54:35.879Z,18.53
2016-11-21T05:55:08.223Z,18.56
2016-11-21T05:55:40.575Z,18.53
2016-11-21T05:56:12.887Z,18.51
2016-11-21T05:56:45.213Z,18.54
2016-11-21T05:57:17.523Z,18.51
2016-11-21T05:57:49.862Z,18.53
2016-11-21T05:58:22.201Z,18.5
2016-11-21T05:58:54.515Z,18.6
2016-11-21T05:59:26.825Z,18.56
2016-11-21T05:59:59.153Z,18.53
2016-11-21T06:00:31.494Z,18.57
2016-11-21T06:01:03.868Z,18.54
2016-11-21T06:01:36.196Z,18.5
2016-11-21T06:02:08.520Z,18.56
2016-11-21T06:02:40.838Z,18.57
2016-11-21T06:03:13.160Z,18.54
2016-11-21T06:03:45.520Z,18.59
2016-11-21T06:04:17.832Z,18.57
2016-11-21T06:04:50.141Z,18.56
2016-11-21T06:05:22.471Z,18.56
2016-11-21T06:05:54.803Z,18.57
2016-11-21T06:06:27.137Z,18.56
2016-11-21T06:06:59.454Z,18.54
2016-11-21T06:07:31.772Z,18.57
2016-11-21T06:08:04.089Z,18.56
2016-11-21T06:08:36.622Z,18.61
2016-11-21T06:09:08.942Z,18.54
2016-11-21T06:09:41.268Z,18.57
2016-11-21T06:10:13.575Z,18.59
2016-11-21T06:10:45.934Z,18.56
2016-11-21T06:11:18.270Z,18.59
2016-11-21T06:11:50.579Z,18.61
2016-11-21T06:12:22.909Z,18.54
2016-11-21T06:12:55.248Z,18.51
2016-11-21T06:13:27.578Z,18.57
2016-11-21T06:13:59.905Z,18.56
2016-11-21T06:14:32.235Z,18.57
2016-11-21T06:15:04.543Z,18.54
2016-11-21T06:15:36.857Z,18.63
2016-11-21T06:16:09.180Z,18.61
2016-11-21T06:16:41.486Z,18.6
2016-11-21T06:17:13.811Z,18.57
2016-11-21T06:17:46.133Z,18.57
2016-11-21T06:18:18.473Z,18.66
2016-11-21T06:18:50.792Z,18.57
2016-11-21T06:19:23.148Z,18.6
2016-11-21T06:19:55.465Z,18.6
2016-11-21T06:20:27.827Z,18.57
2016-11-21T06:21:00.141Z,18.6
2016-11-21T06:21:32.458Z,18.59
2016-11-21T06:22:04.785Z,18.57
2016-11-21T06:22:37.111Z,18.56
2016-11-21T06:23:09.427Z,18.59
2016-11-21T06:23:41.763Z,18.57
2016-11-21T06:24:14.091Z,18.63
2016-11-21T06:24:46.401Z,18.56
2016-11-21T06:25:18.736Z,18.61
2016-11-21T06:25:51.066Z,18.63
2016-11-21T06:26:23.391Z,18.59
2016-11-21T06:26:56.291Z,18.61
2016-11-21T06:27:30.262Z,18.63
2016-11-21T06:28:02.601Z,18.65
2016-11-21T06:28:34.926Z,18.6
2016-11-21T06:29:07.268Z,18.63
2016-11-21T06:29:39.652Z,18.68
2016-11-21T06:30:12.018Z,18.65
2016-11-21T06:30:44.325Z,18.59
2016-11-21T06:31:16.648Z,18.65
2016-11-21T06:31:48.961Z,18.63
2016-11-21T06:32:21.268Z,18.61
2016-11-21T06:32:53.601Z,18.63
2016-11-21T06:33:25.918Z,18.68
2016-11-21T06:33:58.231Z,18.63
2016-11-21T06:34:30.547Z,18.6
2016-11-21T06:35:02.864Z,18.63
2016-11-21T06:35:35.170Z,18.59
2016-11-21T06:36:07.501Z,18.66
2016-11-21T06:36:39.821Z,18.65
2016-11-21T06:37:12.164Z,18.61
2016-11-21T06:37:44.505Z,18.61
2016-11-21T06:38:16.811Z,18.65
2016-11-21T06:38:49.130Z,18.61
2016-11-21T06:39:21.475Z,18.63
2016-11-21T06:39:53.807Z,18.63
2016-11-21T06:40:26.128Z,18.65
2016-11-21T06:40:58.451Z,18.69
2016-11-21T06:41:30.785Z,18.63
2016-11-21T06:42:03.099Z,18.61
2016-11-21T06:42:35.408Z,18.6
2016-11-21T06:43:07.717Z,18.63
2016-11-21T06:43:40.077Z,18.63
2016-11-21T06:44:12.466Z,18.68
2016-11-21T06:44:45.272Z,18.63
2016-11-21T06:45:17.583Z,18.63
2016-11-21T06:45:49.928Z,18.61
2016-11-21T06:46:22.271Z,18.61
2016-11-21T06:46:54.595Z,18.61
2016-11-21T06:47:26.907Z,18.66
2016-11-21T06:47:59.221Z,18.71
2016-11-21T06:48:31.541Z,18.66
2016-11-21T06:49:03.879Z,18.71
2016-11-21T06:49:36.610Z,18.68
2016-11-21T06:50:08.939Z,18.66
2016-11-21T06:50:41.291Z,18.6
2016-11-21T06:51:13.707Z,18.65
2016-11-21T06:51:46.300Z,18.61
2016-11-21T06:52:18.623Z,18.61
2016-11-21T06:52:50.938Z,18.65
2016-11-21T06:53:23.267Z,18.68
2016-11-21T06:53:55.602Z,18.65
2016-11-21T06:54:27.925Z,18.63
2016-11-21T06:55:00.268Z,18.68
2016-11-21T06:55:32.589Z,18.74
2016-11-21T06:56:04.912Z,18.66
2016-11-21T06:56:37.263Z,18.68
2016-11-21T06:57:09.580Z,18.65
2016-11-21T06:57:41.920Z,18.66
2016-11-21T06:58:14.243Z,18.69